createdAt,value
2023-04-19T00:01:18.048Z,3.75
2023-04-19T00:03:45.580Z,3.10
2023-04-19T00:06:14.981Z,4.85
2023-04-19T00:08:42.257Z,3.85
2023-04-19T00:11:10.060Z,4.10
2023-04-19T00:13:36.749Z,4.72
2023-04-19T00:18:29.808Z,5.50
2023-04-19T00:20:56.553Z,3.95
2023-04-19T00:23:23.291Z,5.10
2023-04-19T00:25:50.017Z,3.45
2023-04-19T00:28:16.509Z,5.82
2023-04-19T00:30:43.030Z,3.97
2023-04-19T00:33:12.777Z,3.38
2023-04-19T00:35:42.780Z,4.30
2023-04-19T00:38:09.362Z,3.70
2023-04-19T00:40:37.762Z,5.25
2023-04-19T00:43:04.993Z,3.42
2023-04-19T00:45:34.718Z,4.45
2023-04-19T00:48:02.716Z,3.58
2023-04-19T00:50:29.562Z,5.25
2023-04-19T00:52:57.638Z,4.05
2023-04-19T00:55:24.625Z,3.40
2023-04-19T00:57:52.009Z,4.22
2023-04-19T01:00:19.812Z,3.95
2023-04-19T01:02:48.019Z,3.35
2023-04-19T01:05:15.017Z,3.97
2023-04-19T01:10:08.964Z,3.10
2023-04-19T01:12:36.194Z,3.85
2023-04-19T01:15:02.796Z,4.03
2023-04-19T01:17:32.812Z,5.22
2023-04-19T01:20:03.911Z,3.95
2023-04-19T01:22:31.947Z,3.40
2023-04-19T01:24:58.903Z,3.28
2023-04-19T01:29:52.035Z,3.58
2023-04-19T01:34:45.268Z,5.13
2023-04-19T01:37:11.717Z,3.33
2023-04-19T01:39:38.454Z,4.30
2023-04-19T01:42:04.878Z,4.57
2023-04-19T01:46:58.785Z,4.82
2023-04-19T01:49:25.271Z,4.90
2023-04-19T01:51:52.130Z,4.68
2023-04-19T01:54:18.860Z,5.22
2023-04-19T01:56:45.565Z,6.10
2023-04-19T01:59:12.415Z,5.00
2023-04-19T02:01:39.695Z,5.75
2023-04-19T02:04:07.527Z,5.75
2023-04-19T02:06:33.978Z,6.72
2023-04-19T02:09:00.482Z,5.15
2023-04-19T02:11:27.214Z,5.25
2023-04-19T02:13:53.784Z,5.75
2023-04-19T02:16:20.248Z,7.28
2023-04-19T02:18:48.083Z,5.95
2023-04-19T02:21:14.687Z,6.40
2023-04-19T02:23:41.173Z,8.20
2023-04-19T02:26:07.655Z,6.07
2023-04-19T02:28:34.429Z,6.55
2023-04-19T02:33:30.851Z,6.90
2023-04-19T02:35:57.466Z,6.35
2023-04-19T02:38:24.075Z,6.38
2023-04-19T02:40:51.156Z,7.03
2023-04-19T02:43:18.217Z,7.00
2023-04-19T02:45:44.971Z,7.85
2023-04-19T02:48:11.939Z,5.22
2023-04-19T02:50:38.743Z,5.28
2023-04-19T02:53:05.765Z,6.55
2023-04-19T02:55:33.214Z,5.28
2023-04-19T02:57:59.962Z,7.18
2023-04-19T03:00:26.904Z,6.57
2023-04-19T03:02:53.593Z,6.93
2023-04-19T03:05:20.389Z,6.65
2023-04-19T03:07:47.123Z,7.32
2023-04-19T03:12:40.622Z,5.80
2023-04-19T03:15:08.369Z,5.82
2023-04-19T03:17:35.863Z,7.13
2023-04-19T03:20:02.739Z,8.88
2023-04-19T03:22:29.671Z,7.20
2023-04-19T03:24:56.721Z,7.63
2023-04-19T03:29:49.630Z,6.60
2023-04-19T03:34:43.032Z,7.32
2023-04-19T03:37:09.487Z,8.30
2023-04-19T03:39:36.161Z,7.82
2023-04-19T03:42:03.014Z,7.05
2023-04-19T03:44:33.210Z,7.90
2023-04-19T03:46:59.906Z,8.02
2023-04-19T03:49:26.454Z,7.80
2023-04-19T03:51:53.004Z,6.43
2023-04-19T03:54:20.203Z,8.40
2023-04-19T03:56:47.335Z,9.57
2023-04-19T03:59:13.951Z,7.00
2023-04-19T04:04:11.821Z,6.78
2023-04-19T04:06:38.841Z,7.38
2023-04-19T04:09:05.996Z,8.93
2023-04-19T04:11:32.868Z,7.63
2023-04-19T04:13:59.429Z,7.65
2023-04-19T04:16:25.929Z,6.47
2023-04-19T04:18:53.039Z,6.07
2023-04-19T04:21:19.646Z,8.07
2023-04-19T04:23:47.334Z,7.57
2023-04-19T04:26:13.878Z,8.05
2023-04-19T04:28:41.286Z,7.85
2023-04-19T04:31:07.909Z,8.13
2023-04-19T04:33:34.655Z,8.07
2023-04-19T04:36:01.044Z,7.95
2023-04-19T04:38:28.202Z,7.57
2023-04-19T04:43:24.399Z,8.23
2023-04-19T04:45:51.896Z,8.38
2023-04-19T04:48:18.700Z,7.72
2023-04-19T04:50:45.224Z,7.22
2023-04-19T04:53:14.548Z,9.55
2023-04-19T04:55:41.297Z,8.20
2023-04-19T04:58:08.182Z,7.88
2023-04-19T05:00:34.974Z,8.77
2023-04-19T05:03:03.136Z,8.15
2023-04-19T05:05:30.141Z,8.48
2023-04-19T05:07:57.072Z,7.20
2023-04-19T05:10:23.890Z,7.53
2023-04-19T05:12:51.283Z,8.18
2023-04-19T05:15:17.901Z,8.32
2023-04-19T05:17:44.971Z,6.70
2023-04-19T05:20:12.179Z,8.35
2023-04-19T05:22:39.587Z,6.25
2023-04-19T05:25:06.934Z,7.82
2023-04-19T05:27:33.688Z,6.32
2023-04-19T05:30:00.218Z,7.63
2023-04-19T05:32:27.842Z,8.45
2023-04-19T05:34:54.287Z,7.03
2023-04-19T05:37:20.984Z,7.70
2023-04-19T05:39:47.541Z,6.63
2023-04-19T05:42:14.249Z,8.40
2023-04-19T05:44:41.312Z,9.05
2023-04-19T05:47:08.790Z,7.35
2023-04-19T05:49:35.895Z,7.35
2023-04-19T05:52:02.411Z,7.03
2023-04-19T05:54:34.400Z,7.78
2023-04-19T05:57:04.466Z,6.97
2023-04-19T05:59:31.563Z,7.00
2023-04-19T06:01:58.093Z,7.00
2023-04-19T06:04:25.573Z,8.20
2023-04-19T06:06:52.572Z,7.82
2023-04-19T06:09:19.510Z,7.38
2023-04-19T06:11:50.940Z,7.57
2023-04-19T06:14:18.678Z,7.68
2023-04-19T06:16:45.566Z,7.18
2023-04-19T06:19:12.237Z,6.82
2023-04-19T06:21:38.737Z,8.20
2023-04-19T06:24:08.460Z,6.68
2023-04-19T06:26:35.042Z,7.38
2023-04-19T06:31:28.888Z,7.07
2023-04-19T06:33:55.738Z,9.07
2023-04-19T06:36:22.168Z,7.30
2023-04-19T06:41:16.470Z,8.48
2023-04-19T06:43:44.672Z,9.27
2023-04-19T06:46:13.705Z,8.30
2023-04-19T06:48:40.394Z,8.05
2023-04-19T06:51:06.944Z,8.52
2023-04-19T06:53:34.302Z,8.40
2023-04-19T06:56:02.674Z,7.50
2023-04-19T06:58:29.741Z,7.55
2023-04-19T07:00:56.576Z,6.97
2023-04-19T07:05:52.164Z,8.40
2023-04-19T07:08:18.782Z,8.02
2023-04-19T07:10:45.340Z,8.88
2023-04-19T07:13:12.376Z,8.43
2023-04-19T07:15:39.547Z,7.30
2023-04-19T07:18:06.254Z,8.18
2023-04-19T07:22:59.669Z,6.82
2023-04-19T07:25:27.325Z,6.93
2023-04-19T07:27:55.565Z,8.10
2023-04-19T07:30:22.467Z,7.93
2023-04-19T07:32:51.678Z,7.88
2023-04-19T07:35:19.351Z,6.30
2023-04-19T07:37:46.347Z,6.97
2023-04-19T07:40:13.330Z,6.00
2023-04-19T07:42:43.564Z,7.18
2023-04-19T07:45:10.727Z,7.28
2023-04-19T07:47:37.905Z,7.68
2023-04-19T07:50:05.888Z,7.60
2023-04-19T07:52:32.665Z,6.28
2023-04-19T07:54:59.536Z,5.38
2023-04-19T07:57:26.292Z,7.45
2023-04-19T07:59:57.734Z,6.38
2023-04-19T08:02:27.812Z,6.57
2023-04-19T08:04:54.806Z,7.45
2023-04-19T08:09:49.756Z,5.43
2023-04-19T08:12:33.038Z,6.63
2023-04-19T08:15:17.975Z,7.15
2023-04-19T08:17:50.761Z,8.32
2023-04-19T08:20:17.780Z,6.75
2023-04-19T08:22:45.480Z,6.22
2023-04-19T08:25:11.933Z,6.95
2023-04-19T08:27:38.610Z,6.97
2023-04-19T08:30:07.640Z,6.85
2023-04-19T08:32:34.706Z,6.20
2023-04-19T08:35:01.256Z,6.25
2023-04-19T08:37:27.745Z,6.30
2023-04-19T08:39:54.480Z,6.38
2023-04-19T08:42:33.203Z,5.97
2023-04-19T08:47:44.875Z,5.60
2023-04-19T08:50:32.371Z,6.88
2023-04-19T08:53:16.533Z,5.57
2023-04-19T08:58:28.897Z,5.80
2023-04-19T09:01:00.346Z,7.03
2023-04-19T09:03:27.248Z,6.50
2023-04-19T09:05:55.237Z,5.60
2023-04-19T09:08:24.805Z,6.65
2023-04-19T09:10:59.802Z,5.45
2023-04-19T09:13:28.013Z,6.85
2023-04-19T09:15:57.050Z,7.20
2023-04-19T09:18:28.339Z,6.57
2023-04-19T09:20:57.593Z,5.63
2023-04-19T09:23:25.829Z,5.72
2023-04-19T09:28:32.187Z,7.47
2023-04-19T09:31:10.588Z,5.03
2023-04-19T09:33:42.090Z,5.88
2023-04-19T09:36:10.728Z,6.18
2023-04-19T09:38:48.838Z,5.18
2023-04-19T09:41:17.334Z,6.60
2023-04-19T09:46:30.349Z,5.50
2023-04-19T09:51:54.613Z,6.90
2023-04-19T09:54:24.299Z,5.03
2023-04-19T09:56:54.727Z,4.40
2023-04-19T09:59:23.231Z,4.22
2023-04-19T10:01:58.143Z,5.20
2023-04-19T10:04:43.512Z,4.10
2023-04-19T10:09:52.913Z,4.80
2023-04-19T10:12:46.324Z,5.15
2023-04-19T10:15:13.384Z,5.22
2023-04-19T10:17:40.319Z,3.80
2023-04-19T10:20:10.965Z,5.88
2023-04-19T10:22:38.768Z,4.20
2023-04-19T10:25:15.511Z,4.30
2023-04-19T10:27:46.811Z,4.45
2023-04-19T10:30:18.014Z,3.35
2023-04-19T10:32:52.401Z,3.53
2023-04-19T10:35:24.772Z,3.42
2023-04-19T10:38:10.264Z,3.92
2023-04-19T10:40:52.053Z,3.05
2023-04-19T10:43:19.705Z,3.67
2023-04-19T10:45:47.531Z,3.90
2023-04-19T10:48:26.363Z,3.33
2023-04-19T10:51:03.833Z,2.97
2023-04-19T10:53:50.754Z,3.38
2023-04-19T10:56:39.169Z,3.17
2023-04-19T10:59:10.226Z,3.92
2023-04-19T11:01:52.000Z,4.05
2023-04-19T11:04:32.161Z,3.75
2023-04-19T11:07:08.398Z,3.13
2023-04-19T11:09:38.936Z,3.55
2023-04-19T11:12:12.175Z,3.80
2023-04-19T11:14:46.264Z,3.05
2023-04-19T11:17:27.153Z,3.22
2023-04-19T11:20:09.213Z,3.53
2023-04-19T11:22:39.707Z,3.70
2023-04-19T11:25:10.470Z,2.63
2023-04-19T11:27:39.067Z,2.60
2023-04-19T11:30:10.452Z,3.00
2023-04-19T11:32:37.999Z,2.25
2023-04-19T11:35:08.857Z,2.92
2023-04-19T11:37:37.246Z,1.60
2023-04-19T11:40:06.255Z,2.25
2023-04-19T11:42:34.104Z,2.45
2023-04-19T11:45:01.411Z,2.30
2023-04-19T11:47:28.615Z,2.15
2023-04-19T11:49:56.319Z,1.65
2023-04-19T11:52:25.285Z,1.67
2023-04-19T11:54:52.877Z,2.60
2023-04-19T11:57:29.895Z,2.83
2023-04-19T12:00:11.569Z,2.88
2023-04-19T12:02:44.120Z,2.88
2023-04-19T12:05:15.794Z,2.35
2023-04-19T12:08:03.588Z,2.13
2023-04-19T12:10:34.056Z,2.17
2023-04-19T12:13:01.102Z,1.88
2023-04-19T12:15:44.288Z,2.92
2023-04-19T12:18:11.559Z,3.10
2023-04-19T12:20:45.382Z,2.15
2023-04-19T12:23:16.332Z,2.40
2023-04-19T12:25:44.985Z,3.00
2023-04-19T12:28:11.864Z,2.05
2023-04-19T12:30:39.085Z,2.60
2023-04-19T12:33:07.416Z,2.35
2023-04-19T12:35:35.363Z,3.42
2023-04-19T12:38:02.835Z,2.95
2023-04-19T12:40:30.614Z,2.15
2023-04-19T12:42:57.718Z,2.50
2023-04-19T12:45:24.441Z,3.78
2023-04-19T12:47:50.971Z,2.40
2023-04-19T12:50:17.666Z,3.60
2023-04-19T12:52:45.435Z,2.97
2023-04-19T12:55:12.001Z,2.53
2023-04-19T12:57:38.584Z,2.40
2023-04-19T13:00:07.232Z,2.70
2023-04-19T13:02:35.099Z,2.47
2023-04-19T13:05:03.771Z,3.83
2023-04-19T13:07:31.351Z,2.10
2023-04-19T13:09:57.975Z,1.92
2023-04-19T13:12:24.768Z,2.28
2023-04-19T13:14:53.027Z,2.05
2023-04-19T13:17:20.799Z,2.17
2023-04-19T13:19:47.564Z,4.13
2023-04-19T13:22:14.545Z,5.15
2023-04-19T13:24:43.247Z,2.40
2023-04-19T13:27:09.745Z,2.05
2023-04-19T13:29:36.828Z,2.40
2023-04-19T13:32:03.503Z,2.35
2023-04-19T13:34:30.686Z,1.45
2023-04-19T13:36:58.194Z,2.75
2023-04-19T13:39:25.306Z,1.75
2023-04-19T13:41:51.870Z,1.27
2023-04-19T13:44:18.481Z,1.30
2023-04-19T13:46:45.655Z,2.17
2023-04-19T13:49:12.264Z,1.85
2023-04-19T13:51:49.544Z,2.22
2023-04-19T13:54:18.318Z,1.33
2023-04-19T13:56:45.589Z,1.23
2023-04-19T13:59:12.515Z,2.28
2023-04-19T14:01:39.481Z,1.85
2023-04-19T14:04:06.802Z,1.90
2023-04-19T14:06:33.760Z,3.03
2023-04-19T14:11:26.862Z,2.05
2023-04-19T14:13:54.117Z,3.60
2023-04-19T14:16:24.083Z,2.55
2023-04-19T14:18:51.052Z,2.80
2023-04-19T14:21:17.854Z,2.75
2023-04-19T14:23:44.296Z,2.65
2023-04-19T14:26:12.961Z,1.80
2023-04-19T14:28:39.849Z,1.60
2023-04-19T14:31:06.341Z,1.60
2023-04-19T14:33:33.183Z,4.10
2023-04-19T14:36:00.781Z,1.88
2023-04-19T14:38:27.637Z,1.42
2023-04-19T14:40:54.558Z,1.80
2023-04-19T14:43:21.376Z,1.67
2023-04-19T14:45:49.738Z,1.92
2023-04-19T14:48:16.355Z,2.60
2023-04-19T14:50:42.745Z,2.30
2023-04-19T14:53:09.776Z,1.20
2023-04-19T14:58:05.751Z,2.15
2023-04-19T15:00:33.598Z,2.10
2023-04-19T15:03:01.374Z,3.42
2023-04-19T15:05:28.624Z,3.33
2023-04-19T15:07:55.753Z,2.00
2023-04-19T15:10:22.234Z,2.60
2023-04-19T15:12:48.723Z,2.03
2023-04-19T15:15:16.384Z,4.78
2023-04-19T15:17:43.496Z,2.78
2023-04-19T15:22:36.958Z,2.83
2023-04-19T15:25:03.810Z,4.18
2023-04-19T15:27:31.131Z,2.47
2023-04-19T15:29:57.506Z,3.63
2023-04-19T15:34:50.707Z,2.63
2023-04-19T15:37:17.272Z,2.58
2023-04-19T15:39:44.244Z,5.28
2023-04-19T15:42:10.760Z,3.08
2023-04-19T15:47:03.898Z,3.35
2023-04-19T15:49:30.514Z,2.03
2023-04-19T15:51:57.220Z,2.53
2023-04-19T15:54:23.673Z,3.28
2023-04-19T15:56:50.625Z,2.92
2023-04-19T15:59:17.572Z,2.08
2023-04-19T16:01:44.372Z,2.55
2023-04-19T16:04:11.014Z,2.28
2023-04-19T16:06:37.835Z,2.15
2023-04-19T16:11:31.473Z,2.20
2023-04-19T16:13:58.150Z,3.30
2023-04-19T16:16:26.949Z,3.38
2023-04-19T16:18:53.414Z,2.95
2023-04-19T16:21:20.186Z,3.03
2023-04-19T16:26:13.454Z,2.92
2023-04-19T16:28:39.971Z,2.20
2023-04-19T16:31:06.962Z,2.63
2023-04-19T16:33:33.368Z,2.78
2023-04-19T16:36:00.587Z,3.22
2023-04-19T16:38:28.195Z,3.83
2023-04-19T16:40:55.697Z,3.00
2023-04-19T16:43:22.240Z,2.38
2023-04-19T16:45:49.578Z,2.15
2023-04-19T16:48:16.553Z,2.15
2023-04-19T16:50:43.212Z,2.20
2023-04-19T16:53:11.007Z,3.58
2023-04-19T16:55:38.293Z,2.28
2023-04-19T16:58:05.396Z,2.08
2023-04-19T17:00:32.286Z,1.75
2023-04-19T17:02:59.985Z,2.65
2023-04-19T17:05:26.573Z,3.17
2023-04-19T17:10:22.887Z,2.58
2023-04-19T17:17:19.829Z,3.72
2023-04-19T17:19:46.770Z,2.05
2023-04-19T17:22:14.730Z,4.03
2023-04-19T17:24:41.717Z,2.70
2023-04-19T17:27:08.524Z,2.72
2023-04-19T17:29:35.600Z,2.50
2023-04-19T17:32:02.323Z,2.00
2023-04-19T17:34:29.046Z,2.97
2023-04-19T17:36:55.970Z,3.35
2023-04-19T17:39:27.571Z,1.98
2023-04-19T17:41:55.176Z,3.72
2023-04-19T17:44:22.746Z,1.67
2023-04-19T17:46:49.196Z,2.25
2023-04-19T17:49:17.626Z,2.67
2023-04-19T17:51:44.314Z,2.20
2023-04-19T17:54:11.244Z,2.03
2023-04-19T17:56:38.149Z,2.65
2023-04-19T18:01:33.398Z,2.85
2023-04-19T18:04:00.645Z,2.45
2023-04-19T18:06:27.484Z,3.13
2023-04-19T18:11:21.169Z,3.05
2023-04-19T18:13:48.134Z,3.97
2023-04-19T18:18:44.094Z,3.20
2023-04-19T18:21:11.026Z,3.80
2023-04-19T18:23:37.958Z,3.97
2023-04-19T18:26:04.641Z,2.50
2023-04-19T18:30:58.781Z,2.58
2023-04-19T18:33:25.548Z,2.38
2023-04-19T18:35:53.827Z,3.10
2023-04-19T18:38:20.981Z,1.98
2023-04-19T18:43:14.408Z,2.20
2023-04-19T18:45:40.980Z,2.13
2023-04-19T18:48:08.506Z,1.92
2023-04-19T18:50:36.942Z,1.73
2023-04-19T18:53:03.856Z,1.95
2023-04-19T18:57:57.490Z,2.75
2023-04-19T19:00:25.033Z,1.95
2023-04-19T19:02:52.943Z,1.60
2023-04-19T19:05:20.380Z,1.85
2023-04-19T19:07:48.324Z,3.80
2023-04-19T19:10:20.911Z,2.38
2023-04-19T19:12:49.325Z,1.83
2023-04-19T19:15:16.468Z,2.05
2023-04-19T19:17:48.588Z,1.70
2023-04-19T19:22:46.159Z,1.55
2023-04-19T19:25:13.255Z,2.45
2023-04-19T19:27:40.221Z,3.40
2023-04-19T19:30:08.221Z,2.28
2023-04-19T19:32:35.946Z,2.47
2023-04-19T19:35:06.371Z,2.13
2023-04-19T19:37:39.631Z,1.92
2023-04-19T19:40:10.756Z,1.85
2023-04-19T19:42:41.185Z,2.38
2023-04-19T19:45:09.332Z,2.17
2023-04-19T19:47:45.236Z,2.92
2023-04-19T19:51:05.040Z,2.60
2023-04-19T19:53:13.545Z,2.55
2023-04-19T19:55:40.201Z,2.92
2023-04-19T20:00:47.913Z,2.05
2023-04-19T20:03:32.782Z,2.97
2023-04-19T20:06:25.764Z,2.28
2023-04-19T20:08:49.972Z,2.00
2023-04-19T20:11:16.583Z,2.00
2023-04-19T20:13:43.518Z,1.77
2023-04-19T20:16:10.726Z,2.55
2023-04-19T20:18:40.149Z,2.55
2023-04-19T20:21:33.085Z,2.97
2023-04-19T20:24:05.920Z,2.65
2023-04-19T20:26:33.353Z,1.88
2023-04-19T20:29:01.152Z,1.90
2023-04-19T20:31:28.164Z,5.55
2023-04-19T20:36:24.656Z,2.60
2023-04-19T20:38:51.462Z,2.97
2023-04-19T20:41:18.596Z,1.83
2023-04-19T20:43:45.260Z,2.28
2023-04-19T20:46:11.949Z,2.40
2023-04-19T20:48:38.431Z,2.60
2023-04-19T20:51:04.979Z,2.42
2023-04-19T20:53:34.144Z,3.72
2023-04-19T20:56:02.641Z,2.15
2023-04-19T20:58:32.071Z,2.85
2023-04-19T21:00:59.168Z,3.85
2023-04-19T21:03:26.507Z,4.40
2023-04-19T21:08:19.769Z,2.03
2023-04-19T21:10:46.523Z,2.72
2023-04-19T21:13:13.162Z,2.92
2023-04-19T21:15:41.017Z,2.97
2023-04-19T21:18:07.584Z,2.33
2023-04-19T21:23:01.980Z,3.97
2023-04-19T21:25:28.757Z,2.03
2023-04-19T21:27:58.647Z,2.88
2023-04-19T21:30:25.784Z,2.47
2023-04-19T21:32:52.822Z,3.25
2023-04-19T21:35:19.973Z,2.05
2023-04-19T21:37:46.965Z,2.05
2023-04-19T21:40:13.625Z,2.30
2023-04-19T21:45:07.566Z,1.88
2023-04-19T21:47:34.568Z,3.10
2023-04-19T21:50:01.397Z,4.20
2023-04-19T21:54:54.676Z,2.35
2023-04-19T21:57:24.418Z,2.28
2023-04-19T21:59:51.230Z,1.90
2023-04-19T22:02:17.875Z,2.13
2023-04-19T22:04:45.671Z,3.53
2023-04-19T22:07:12.671Z,2.67
2023-04-19T22:09:39.698Z,4.85
2023-04-19T22:12:06.424Z,3.28
2023-04-19T22:14:35.585Z,4.20
2023-04-19T22:17:02.990Z,3.53
2023-04-19T22:19:29.931Z,2.75
2023-04-19T22:21:56.771Z,2.22
2023-04-19T22:24:24.052Z,2.40
2023-04-19T22:26:50.900Z,2.60
2023-04-19T22:29:17.629Z,2.25
2023-04-19T22:31:45.145Z,3.33
2023-04-19T22:34:15.248Z,4.18
2023-04-19T22:36:42.157Z,3.05
2023-04-19T22:39:09.081Z,4.30
2023-04-19T22:44:03.044Z,4.90
2023-04-19T22:46:29.781Z,3.97
2023-04-19T22:48:57.472Z,2.72
2023-04-19T22:51:24.241Z,2.78
2023-04-19T22:53:50.866Z,3.47
2023-04-19T22:58:44.636Z,2.65
2023-04-19T23:01:11.854Z,2.35
2023-04-19T23:03:38.467Z,2.67
2023-04-19T23:06:05.928Z,2.45
2023-04-19T23:08:33.395Z,2.45
2023-04-19T23:11:00.337Z,3.75
2023-04-19T23:13:28.318Z,4.35
2023-04-19T23:15:55.109Z,3.25
2023-04-19T23:18:21.756Z,3.45
2023-04-19T23:20:48.231Z,4.70
2023-04-19T23:23:14.861Z,3.22
2023-04-19T23:28:09.843Z,2.20
2023-04-19T23:30:38.680Z,2.58
2023-04-19T23:33:05.605Z,3.10
2023-04-19T23:35:32.773Z,1.98
2023-04-19T23:37:59.369Z,2.25
2023-04-19T23:40:26.264Z,2.75
2023-04-19T23:42:52.776Z,5.15
2023-04-19T23:45:19.428Z,3.95
2023-04-19T23:47:46.169Z,4.03
2023-04-19T23:50:12.804Z,6.25
2023-04-19T23:52:40.029Z,3.05
2023-04-19T23:55:06.888Z,3.80
2023-04-19T23:57:35.590Z,2.65
